TimeCST,TemperatureF,Dew PointF,Humidity,Sea Level PressureIn,VisibilityMPH,Wind Direction,Wind SpeedMPH,Gust SpeedMPH,PrecipitationIn,Events,Conditions,WindDirDegrees,DateUTC
12:09 AM,-11.2,-18.4,70,30.38,10.0,Calm,Calm,-,N/A,,Clear,0,2013-03-02 06:09:00
12:29 AM,-13.0,-20.2,70,30.37,10.0,Calm,Calm,-,N/A,,Clear,0,2013-03-02 06:29:00
12:49 AM,-14.8,-20.2,77,30.37,10.0,Calm,Calm,-,N/A,,Clear,0,2013-03-02 06:49:00
1:09 AM,-14.8,-23.8,64,30.37,10.0,Calm,Calm,-,N/A,,Clear,0,2013-03-02 07:09:00
1:29 AM,-14.8,-22.0,70,30.38,7.0,Calm,Calm,-,N/A,,Clear,0,2013-03-02 07:29:00
1:49 AM,-14.8,-23.8,64,30.38,10.0,Calm,Calm,-,N/A,,Clear,0,2013-03-02 07:49:00
2:09 AM,-16.6,-23.8,70,30.38,10.0,Calm,Calm,-,N/A,,Clear,0,2013-03-02 08:09:00
2:29 AM,-16.6,-23.8,70,30.37,10.0,Calm,Calm,-,N/A,,Clear,0,2013-03-02 08:29:00
3:09 AM,-18.4,-25.6,70,30.38,10.0,Calm,Calm,-,N/A,,Clear,0,2013-03-02 09:09:00
3:29 AM,-18.4,-25.6,70,30.38,10.0,Calm,Calm,-,N/A,,Clear,0,2013-03-02 09:29:00
3:50 AM,-20.2,-27.4,69,30.37,10.0,Calm,Calm,-,N/A,,Clear,0,2013-03-02 09:50:00
4:09 AM,-20.2,-27.4,69,30.37,10.0,Calm,Calm,-,N/A,,Clear,0,2013-03-02 10:09:00
4:29 AM,-20.2,-27.4,69,30.37,10.0,Calm,Calm,-,N/A,,Clear,0,2013-03-02 10:29:00
4:49 AM,-20.2,-27.4,69,30.38,10.0,Calm,Calm,-,N/A,,Clear,0,2013-03-02 10:49:00
5:09 AM,-20.2,-27.4,69,30.38,10.0,Calm,Calm,-,N/A,,Clear,0,2013-03-02 11:09:00
5:29 AM,-20.2,-27.4,69,30.38,10.0,Calm,Calm,-,N/A,,Clear,0,2013-03-02 11:29:00
6:29 AM,-22.0,-29.2,69,30.38,10.0,Calm,Calm,-,N/A,,Clear,0,2013-03-02 12:29:00
6:49 AM,-23.8,-31.0,69,30.38,10.0,Calm,Calm,-,N/A,,Clear,0,2013-03-02 12:49:00
7:09 AM,-23.8,-29.2,76,30.37,10.0,Calm,Calm,-,N/A,,Clear,0,2013-03-02 13:09:00
7:30 AM,-22.0,-29.2,69,30.37,10.0,Calm,Calm,-,N/A,,Clear,0,2013-03-02 13:30:00
7:49 AM,-20.2,-25.6,76,30.36,10.0,Calm,Calm,-,N/A,,Clear,0,2013-03-02 13:49:00
8:09 AM,-16.6,-23.8,70,30.36,10.0,Calm,Calm,-,N/A,,Clear,0,2013-03-02 14:09:00
8:29 AM,-13.0,-20.2,70,30.35,10.0,Calm,Calm,-,N/A,,Clear,0,2013-03-02 14:29:00
8:50 AM,-5.8,-11.2,77,30.34,10.0,Calm,Calm,-,N/A,,Clear,0,2013-03-02 14:50:00
9:10 AM,1.4,-7.6,66,30.34,10.0,Calm,Calm,-,N/A,,Clear,0,2013-03-02 15:10:00
9:29 AM,3.2,-7.6,61,30.33,10.0,Calm,Calm,-,N/A,,Clear,0,2013-03-02 15:29:00
9:49 AM,8.6,-5.8,52,30.33,10.0,Calm,Calm,-,N/A,,Clear,0,2013-03-02 15:49:00
10:09 AM,8.6,-7.6,48,30.32,10.0,NW,3.5,-,N/A,,Clear,310,2013-03-02 16:09:00
10:30 AM,14.0,-4.0,45,30.31,10.0,NW,3.5,-,N/A,,Clear,310,2013-03-02 16:30:00
10:50 AM,17.6,-2.2,42,30.31,10.0,NW,3.5,-,N/A,,Clear,310,2013-03-02 16:50:00
11:09 AM,19.4,-2.2,39,30.30,10.0,NW,3.5,-,N/A,,Clear,310,2013-03-02 17:09:00
11:29 AM,21.2,-4.0,33,30.30,10.0,NW,4.6,-,N/A,,Clear,310,2013-03-02 17:29:00
11:50 AM,23.0,-5.8,28,30.29,10.0,NW,5.8,-,N/A,,Clear,310,2013-03-02 17:50:00
12:29 PM,26.6,-2.2,29,30.28,10.0,NW,5.8,-,N/A,,Clear,310,2013-03-02 18:29:00
12:49 PM,26.6,-5.8,24,30.27,10.0,NW,4.6,-,N/A,,Clear,310,2013-03-02 18:49:00
1:09 PM,28.4,-5.8,23,30.26,10.0,NW,5.8,-,N/A,,Clear,310,2013-03-02 19:09:00
1:29 PM,28.4,-7.6,21,30.25,10.0,NW,3.5,-,N/A,,Clear,320,2013-03-02 19:29:00
1:49 PM,28.4,-9.4,19,30.25,10.0,NW,4.6,-,N/A,,Clear,310,2013-03-02 19:49:00
2:09 PM,24.8,-14.8,17,30.25,10.0,North,3.5,-,N/A,,Clear,350,2013-03-02 20:09:00
2:30 PM,24.8,-14.8,17,30.24,10.0,North,4.6,-,N/A,,Scattered Clouds,10,2013-03-02 20:30:00
2:49 PM,24.8,-16.6,16,30.24,10.0,North,3.5,-,N/A,,Clear,350,2013-03-02 20:49:00
3:10 PM,26.6,-13.0,17,30.23,10.0,Calm,Calm,-,N/A,,Scattered Clouds,0,2013-03-02 21:10:00
3:29 PM,28.4,-13.0,16,30.23,10.0,North,4.6,-,N/A,,Scattered Clouds,350,2013-03-02 21:29:00
3:49 PM,28.4,-14.8,15,30.22,10.0,Calm,Calm,-,N/A,,Clear,0,2013-03-02 21:49:00
4:09 PM,28.4,-14.8,15,30.22,10.0,Calm,Calm,-,N/A,,Clear,0,2013-03-02 22:09:00
4:30 PM,28.4,-14.8,15,30.21,10.0,NE,3.5,-,N/A,,Clear,40,2013-03-02 22:30:00
4:49 PM,28.4,-16.6,13,30.21,10.0,Calm,Calm,-,N/A,,Clear,0,2013-03-02 22:49:00
5:09 PM,26.6,-18.4,13,30.21,10.0,Calm,Calm,-,N/A,,Clear,0,2013-03-02 23:09:00
5:29 PM,21.2,-20.2,15,30.21,10.0,Calm,Calm,-,N/A,,Clear,0,2013-03-02 23:29:00
5:49 PM,17.6,-20.2,18,30.20,10.0,Calm,Calm,-,N/A,,Mostly Cloudy,0,2013-03-02 23:49:00
6:09 PM,14.0,-20.2,21,30.20,10.0,Calm,Calm,-,N/A,,Mostly Cloudy,0,2013-03-03 00:09:00
6:29 PM,10.4,-23.8,20,30.21,10.0,Calm,Calm,-,N/A,,Scattered Clouds,0,2013-03-03 00:29:00
6:49 PM,8.6,-18.4,28,30.21,10.0,Calm,Calm,-,N/A,,Clear,0,2013-03-03 00:49:00
7:09 PM,6.8,-18.4,31,30.21,10.0,Calm,Calm,-,N/A,,Clear,0,2013-03-03 01:09:00
7:29 PM,3.2,-18.4,36,30.21,10.0,Calm,Calm,-,N/A,,Clear,0,2013-03-03 01:29:00
7:49 PM,1.4,-16.6,43,30.20,10.0,Calm,Calm,-,N/A,,Clear,0,2013-03-03 01:49:00
8:09 PM,1.4,-16.6,43,30.20,10.0,Calm,Calm,-,N/A,,Clear,0,2013-03-03 02:09:00
8:29 PM,-0.4,-16.6,46,30.20,10.0,Calm,Calm,-,N/A,,Clear,0,2013-03-03 02:29:00
8:50 PM,-0.4,-14.8,51,30.19,10.0,Calm,Calm,-,N/A,,Clear,0,2013-03-03 02:50:00
9:10 PM,-2.2,-16.6,50,30.19,10.0,Calm,Calm,-,N/A,,Clear,0,2013-03-03 03:10:00
9:29 PM,-4.0,-14.8,60,30.18,10.0,Calm,Calm,-,N/A,,Clear,0,2013-03-03 03:29:00
9:49 PM,-4.0,-16.6,55,30.18,10.0,Calm,Calm,-,N/A,,Clear,0,2013-03-03 03:49:00
10:10 PM,-5.8,-16.6,60,30.18,10.0,Calm,Calm,-,N/A,,Clear,0,2013-03-03 04:10:00
10:29 PM,-5.8,-16.6,60,30.18,10.0,Calm,Calm,-,N/A,,Clear,0,2013-03-03 04:29:00
10:49 PM,-7.6,-16.6,65,30.17,10.0,Calm,Calm,-,N/A,,Clear,0,2013-03-03 04:49:00
11:09 PM,-7.6,-16.6,65,30.17,10.0,Calm,Calm,-,N/A,,Clear,0,2013-03-03 05:09:00
11:30 PM,-7.6,-16.6,65,30.17,10.0,Calm,Calm,-,N/A,,Clear,0,2013-03-03 05:30:00
11:49 PM,-9.4,-16.6,71,30.17,10.0,Calm,Calm,-,N/A,,Clear,0,2013-03-03 05:49:00